Estación de Las Viñas

Ultimos registro cada 15 minutos 75
Estación Fecha / Hora Temperatura Humedad Lluvia Velocidad Dirección Radiación Presion
75 Las Viñas 04-05-2026 18:30 12,9 85 0 0 335 0 1015,6
74 Las Viñas 04-05-2026 18:15 13,1 86 0,2 0 335 0 1015,6
73 Las Viñas 04-05-2026 18:00 13,2 86 0 0 335 0 1015,6
72 Las Viñas 04-05-2026 17:45 13,4 86 0,2 0 335 0 1016
71 Las Viñas 04-05-2026 17:30 13,6 86 0 0 335 0 1016
70 Las Viñas 04-05-2026 17:15 13,7 87 0 0 335 7 1016
69 Las Viñas 04-05-2026 17:00 13,8 87 0 0 335 12 1016
68 Las Viñas 04-05-2026 16:45 14 87 0 0 335 14 1015,9
67 Las Viñas 04-05-2026 16:30 14,1 87 0 0 351 18 1016
66 Las Viñas 04-05-2026 16:15 14,2 87 0 0 352 21 1015,8
65 Las Viñas 04-05-2026 16:00 14,3 88 0 0 353 42 1016
64 Las Viñas 04-05-2026 15:45 14,3 88 0 0 8 62 1015,9
63 Las Viñas 04-05-2026 15:30 14,4 88 0 0 8 81 1016,1
62 Las Viñas 04-05-2026 15:15 14,5 87 0 0 10 107 1016,2
61 Las Viñas 04-05-2026 15:00 14,5 87 0 0 15 105 1016,5
60 Las Viñas 04-05-2026 14:45 14,4 88 0 0 10 137 1016,6
59 Las Viñas 04-05-2026 14:30 14,4 87 0 0 358 139 1016,8
58 Las Viñas 04-05-2026 14:15 14,4 87 0 0 22 142 1016,7
57 Las Viñas 04-05-2026 14:00 14,3 87 0 0 13 128 1016,7
56 Las Viñas 04-05-2026 13:45 14,3 86 0 0 355 181 1017,3
55 Las Viñas 04-05-2026 13:30 14 85 0 0 353 265 1017,6
54 Las Viñas 04-05-2026 13:15 13,6 85 0 0 347 165 1017,3
53 Las Viñas 04-05-2026 13:00 13,7 85 0 0,4 12 46 1017,6
52 Las Viñas 04-05-2026 12:45 13,6 83 0 0 12 125 1017,7
51 Las Viñas 04-05-2026 12:30 13,5 80 0 0 336 120 1018,1
50 Las Viñas 04-05-2026 12:15 13,3 78 0 0 5 130 1018
49 Las Viñas 04-05-2026 12:00 13,1 76 0 1,8 330 125 1018
48 Las Viñas 04-05-2026 11:45 12,9 73 0 0 5 127 1018
47 Las Viñas 04-05-2026 11:30 12,7 73 0 0,9 5 98 1017,9
46 Las Viñas 04-05-2026 11:15 12,5 73 0 0 349 74 1018
45 Las Viñas 04-05-2026 11:00 12,3 72 0 0 337 120 1018,3
44 Las Viñas 04-05-2026 10:45 12,2 72 0 0,4 33 90 1018,3
43 Las Viñas 04-05-2026 10:30 11,9 72 0 0 2 93 1018,1
42 Las Viñas 04-05-2026 10:15 11,8 72 0 0 26 79 1018,1
41 Las Viñas 04-05-2026 10:00 11,6 72 0 0 358 62 1018,1
40 Las Viñas 04-05-2026 09:45 11,5 72 0 0 344 32 1017,9
39 Las Viñas 04-05-2026 09:30 11,3 73 0 0 4 33 1017,8
38 Las Viñas 04-05-2026 09:15 11,3 73 0 0 5 21 1017,7
37 Las Viñas 04-05-2026 09:00 11,2 73 0 0 293 25 1017,6
36 Las Viñas 04-05-2026 08:45 11 73 0 0 21 30 1017,3
35 Las Viñas 04-05-2026 08:30 10,9 73 0 0 28 25 1017,4
34 Las Viñas 04-05-2026 08:15 10,8 73 0 0 13 16 1017,3
33 Las Viñas 04-05-2026 08:00 10,8 73 0 0 348 5 1017
32 Las Viñas 04-05-2026 07:45 10,7 73 0 0 351 7 1016,6
31 Las Viñas 04-05-2026 07:30 10,7 73 0 0 5 0 1016,6
30 Las Viñas 04-05-2026 07:15 10,6 73 0 0 25 0 1016,6
29 Las Viñas 04-05-2026 07:00 10,6 73 0 0 357 0 1016,7
28 Las Viñas 04-05-2026 06:45 10,5 73 0 0 351 0 1016,8
27 Las Viñas 04-05-2026 06:30 10,4 73 0 0 358 0 1016,9
26 Las Viñas 04-05-2026 06:15 10,4 73 0 0 358 0 1016,8
25 Las Viñas 04-05-2026 06:00 10,3 73 0 0 339 0 1016,7
24 Las Viñas 04-05-2026 05:45 10,1 74 0 0 339 0 1016,4
23 Las Viñas 04-05-2026 05:30 10 74 0 0 322 0 1016,6
22 Las Viñas 04-05-2026 05:15 9,9 74 0 0 322 0 1016,8
21 Las Viñas 04-05-2026 05:00 9,9 75 0 0 322 0 1016,8
20 Las Viñas 04-05-2026 04:45 9,8 75 0 0 322 0 1016,8
19 Las Viñas 04-05-2026 04:30 9,8 75 0 0 322 0 1017
18 Las Viñas 04-05-2026 04:15 9,8 75 0 0 322 0 1016,6
17 Las Viñas 04-05-2026 04:00 9,7 75 0 0 322 0 1016,5
16 Las Viñas 04-05-2026 03:45 9,7 76 0 0 322 0 1016,8
15 Las Viñas 04-05-2026 03:30 9,7 76 0 0 322 0 1017,1
14 Las Viñas 04-05-2026 03:15 9,7 76 0 0 322 0 1017,1
13 Las Viñas 04-05-2026 03:00 9,7 76 0 0 322 0 1017,2
12 Las Viñas 04-05-2026 02:45 9,6 76 0 0 322 0 1017,3
11 Las Viñas 04-05-2026 02:30 9,6 76 0 0 322 0 1017,5
10 Las Viñas 04-05-2026 02:15 9,6 76 0 0 322 0 1017,5
9 Las Viñas 04-05-2026 02:00 9,6 77 0 0 322 0 1017,7
8 Las Viñas 04-05-2026 01:45 9,6 77 0 0 322 0 1017,8
7 Las Viñas 04-05-2026 01:30 9,7 77 0 0 322 0 1018
6 Las Viñas 04-05-2026 01:15 9,6 77 0 0 322 0 1018,3
5 Las Viñas 04-05-2026 01:00 9,7 77 0 0 322 0 1018,7
4 Las Viñas 04-05-2026 00:45 9,7 77 0 0 322 0 1018,8
3 Las Viñas 04-05-2026 00:30 9,6 77 0 0 322 0 1018,6
2 Las Viñas 04-05-2026 00:15 9,6 78 0 0 322 0 1018,5
1 Las Viñas 04-05-2026 00:00 9,6 78 0 0 322 0 1018,5